createdAt,value
2018-06-02T00:00:05.994Z,35.40
2018-06-02T00:01:06.038Z,35.70
2018-06-02T00:02:06.064Z,36.50
2018-06-02T00:03:06.098Z,35.40
2018-06-02T00:04:06.133Z,35.70
2018-06-02T00:05:06.166Z,36.20
2018-06-02T00:06:06.205Z,38.30
2018-06-02T00:07:06.235Z,37.50
2018-06-02T00:08:06.270Z,38.10
2018-06-02T00:09:06.337Z,38.00
2018-06-02T00:10:06.339Z,39.40
2018-06-02T00:11:06.428Z,38.50
2018-06-02T00:12:06.404Z,42.80
2018-06-02T00:13:06.442Z,38.10
2018-06-02T00:14:06.478Z,38.70
2018-06-02T00:15:06.510Z,39.30
2018-06-02T00:16:06.551Z,38.40
2018-06-02T00:17:06.580Z,39.20
2018-06-02T00:18:06.612Z,38.40
2018-06-02T00:19:06.646Z,36.90
2018-06-02T00:20:06.686Z,34.80
2018-06-02T00:21:06.716Z,36.40
2018-06-02T00:22:06.749Z,36.00
2018-06-02T00:23:06.784Z,35.50
2018-06-02T00:24:06.819Z,37.30
2018-06-02T00:25:06.854Z,36.00
2018-06-02T00:26:06.885Z,36.90
2018-06-02T00:27:06.922Z,36.90
2018-06-02T00:28:06.954Z,37.40
2018-06-02T00:29:06.989Z,37.00
2018-06-02T00:30:07.024Z,35.80
2018-06-02T00:31:07.057Z,35.30
2018-06-02T00:32:07.110Z,37.50
2018-06-02T00:33:07.126Z,35.70
2018-06-02T00:34:07.164Z,36.80
2018-06-02T00:35:07.195Z,37.80
2018-06-02T00:36:07.230Z,38.60
2018-06-02T00:37:07.262Z,38.00
2018-06-02T00:38:07.297Z,38.70
2018-06-02T00:39:07.333Z,41.40
2018-06-02T00:40:07.364Z,41.20
2018-06-02T00:41:07.399Z,40.60
2018-06-02T00:42:07.437Z,40.40
2018-06-02T00:43:07.467Z,38.80
2018-06-02T00:44:07.501Z,39.30
2018-06-02T00:45:07.536Z,39.60
2018-06-02T00:46:07.574Z,39.40
2018-06-02T00:47:07.611Z,39.80
2018-06-02T00:48:07.638Z,40.60
2018-06-02T00:49:07.673Z,40.30
2018-06-02T00:50:07.710Z,39.90
2018-06-02T00:51:07.743Z,39.80
2018-06-02T00:52:07.771Z,39.80
2018-06-02T00:53:07.811Z,40.00
2018-06-02T00:54:07.843Z,38.80
2018-06-02T00:55:07.877Z,41.20
2018-06-02T00:56:07.910Z,39.20
2018-06-02T00:57:07.947Z,43.40
2018-06-02T00:58:07.978Z,39.70
2018-06-02T00:59:08.013Z,39.60
2018-06-02T01:00:08.046Z,39.50
2018-06-02T01:01:08.080Z,38.60
2018-06-02T01:02:08.114Z,39.50
2018-06-02T01:03:08.151Z,40.20
2018-06-02T01:04:08.181Z,38.20
2018-06-02T01:05:08.216Z,39.80
2018-06-02T01:06:08.251Z,39.50
2018-06-02T01:07:08.282Z,39.90
2018-06-02T01:08:08.319Z,40.20
2018-06-02T01:09:08.352Z,41.00
2018-06-02T01:10:08.389Z,39.10
2018-06-02T01:11:08.418Z,41.30
2018-06-02T01:12:08.454Z,41.00
2018-06-02T01:13:08.488Z,40.70
2018-06-02T01:14:08.523Z,41.50
2018-06-02T01:15:08.556Z,40.70
2018-06-02T01:16:08.588Z,40.10
2018-06-02T01:17:08.623Z,38.60
2018-06-02T01:18:08.657Z,39.90
2018-06-02T01:19:08.693Z,40.60
2018-06-02T01:20:08.727Z,40.70
2018-06-02T01:21:08.759Z,41.70
2018-06-02T01:22:08.795Z,43.10
2018-06-02T01:23:08.831Z,39.90
2018-06-02T01:24:08.858Z,41.40
2018-06-02T01:25:08.929Z,41.90
2018-06-02T01:26:08.929Z,40.90
2018-06-02T01:27:08.962Z,40.90
2018-06-02T01:28:08.996Z,42.10
2018-06-02T01:29:09.031Z,39.70
2018-06-02T01:30:09.064Z,41.80
2018-06-02T01:31:09.097Z,43.10
2018-06-02T01:32:09.131Z,42.30
2018-06-02T01:33:09.167Z,40.80
2018-06-02T01:34:09.197Z,41.90
2018-06-02T01:35:09.274Z,42.30
2018-06-02T01:36:09.282Z,43.20
2018-06-02T01:37:09.299Z,42.50
2018-06-02T01:38:09.363Z,42.30
2018-06-02T01:39:09.369Z,41.80
2018-06-02T01:40:09.403Z,41.60
2018-06-02T01:41:09.480Z,41.20
2018-06-02T01:42:09.470Z,39.90
2018-06-02T01:43:09.504Z,40.90
2018-06-02T01:44:09.538Z,42.30
2018-06-02T01:45:09.572Z,40.90
2018-06-02T01:46:09.605Z,43.20
2018-06-02T01:47:09.641Z,41.40
2018-06-02T01:48:09.672Z,40.50
2018-06-02T01:49:09.724Z,41.50
2018-06-02T01:50:09.743Z,42.00
2018-06-02T01:51:09.776Z,42.90
2018-06-02T01:52:09.808Z,42.40
2018-06-02T01:53:09.842Z,42.70
2018-06-02T01:54:09.876Z,41.70
2018-06-02T01:55:09.911Z,42.00
2018-06-02T01:56:09.948Z,41.90
2018-06-02T01:57:09.977Z,42.70
2018-06-02T01:58:10.011Z,41.10
2018-06-02T01:59:10.049Z,40.90
2018-06-02T02:00:10.080Z,40.60
2018-06-02T02:01:10.110Z,44.90
2018-06-02T02:02:10.148Z,44.20
2018-06-02T02:03:10.180Z,42.10
2018-06-02T02:04:10.214Z,44.10
2018-06-02T02:05:10.247Z,41.90
2018-06-02T02:06:10.281Z,42.20
2018-06-02T02:07:10.317Z,42.30
2018-06-02T02:08:10.349Z,42.30
2018-06-02T02:09:10.382Z,44.10
2018-06-02T02:10:10.419Z,42.20
2018-06-02T02:11:10.451Z,42.70
2018-06-02T02:12:10.484Z,41.90
2018-06-02T02:13:10.517Z,44.80
2018-06-02T02:14:10.556Z,46.10
2018-06-02T02:15:10.587Z,44.00
2018-06-02T02:16:10.619Z,43.00
2018-06-02T02:17:10.652Z,43.70
2018-06-02T02:18:10.687Z,45.40
2018-06-02T02:19:10.720Z,45.10
2018-06-02T02:20:10.752Z,42.30
2018-06-02T02:21:10.787Z,41.50
2018-06-02T02:22:10.821Z,43.80
2018-06-02T02:23:10.859Z,42.00
2018-06-02T02:24:10.888Z,45.00
2018-06-02T02:25:10.921Z,41.50
2018-06-02T02:26:10.957Z,43.80
2018-06-02T02:27:11.234Z,43.10
2018-06-02T02:28:11.025Z,40.80
2018-06-02T02:29:11.056Z,45.00
2018-06-02T02:30:11.091Z,43.50
2018-06-02T02:31:11.124Z,45.60
2018-06-02T02:32:11.159Z,42.10
2018-06-02T02:33:11.193Z,45.70
2018-06-02T02:34:11.228Z,42.90
2018-06-02T02:35:11.264Z,42.50
2018-06-02T02:36:11.292Z,40.60
2018-06-02T02:37:11.328Z,40.50
2018-06-02T02:38:11.363Z,44.40
2018-06-02T02:39:11.393Z,41.40
2018-06-02T02:40:11.427Z,41.10
2018-06-02T02:41:11.460Z,42.10
2018-06-02T02:42:11.494Z,40.80
2018-06-02T02:43:11.528Z,42.20
2018-06-02T02:44:11.564Z,44.70
2018-06-02T02:45:11.595Z,41.50
2018-06-02T02:46:11.636Z,41.90
2018-06-02T02:47:11.665Z,45.50
2018-06-02T02:48:11.692Z,42.30
2018-06-02T02:49:11.732Z,41.90
2018-06-02T02:50:11.763Z,43.60
2018-06-02T02:51:11.798Z,43.50
2018-06-02T02:52:11.949Z,43.00
2018-06-02T02:53:11.865Z,44.80
2018-06-02T02:54:11.900Z,47.80
2018-06-02T02:55:11.932Z,43.20
2018-06-02T02:56:11.966Z,44.40
2018-06-02T02:57:12.000Z,45.20
2018-06-02T02:58:12.032Z,41.50
2018-06-02T02:59:12.067Z,45.90
2018-06-02T03:00:12.100Z,43.70
2018-06-02T03:01:12.133Z,45.10
2018-06-02T03:02:12.167Z,43.70
2018-06-02T03:03:12.200Z,43.20
2018-06-02T03:04:12.237Z,44.10
2018-06-02T03:05:12.267Z,44.20
2018-06-02T03:06:12.301Z,45.60
2018-06-02T03:07:12.336Z,44.90
2018-06-02T03:08:12.370Z,44.30
2018-06-02T03:09:12.401Z,43.60
2018-06-02T03:10:12.435Z,45.10
2018-06-02T03:11:12.472Z,45.80
2018-06-02T03:12:12.502Z,46.30
2018-06-02T03:13:12.536Z,47.90
2018-06-02T03:14:12.574Z,46.40
2018-06-02T03:15:12.603Z,45.70
2018-06-02T03:16:12.641Z,45.20
2018-06-02T03:17:12.669Z,43.00
2018-06-02T03:18:12.706Z,43.80
2018-06-02T03:19:12.741Z,43.90
2018-06-02T03:20:12.770Z,45.30
2018-06-02T03:21:12.804Z,44.40
2018-06-02T03:22:12.837Z,47.70
2018-06-02T03:23:12.872Z,47.90
2018-06-02T03:24:12.906Z,45.80
2018-06-02T03:25:12.938Z,44.10
2018-06-02T03:26:12.974Z,46.70
2018-06-02T03:27:13.006Z,46.10
2018-06-02T03:28:13.039Z,44.20
2018-06-02T03:29:13.076Z,42.40
2018-06-02T03:30:13.113Z,46.10
2018-06-02T03:31:13.177Z,46.20
2018-06-02T03:32:13.219Z,44.50
2018-06-02T03:33:13.206Z,46.20
2018-06-02T03:34:13.240Z,44.30
2018-06-02T03:35:13.276Z,44.20
2018-06-02T03:36:13.306Z,45.80
2018-06-02T03:37:13.339Z,46.00
2018-06-02T03:38:13.376Z,50.40
2018-06-02T03:39:13.408Z,47.70
2018-06-02T03:40:13.443Z,48.50
2018-06-02T03:41:13.474Z,46.60
2018-06-02T03:42:13.508Z,47.00
2018-06-02T03:43:13.542Z,45.10
2018-06-02T03:44:13.574Z,44.40
2018-06-02T03:45:13.607Z,48.10
2018-06-02T03:46:13.639Z,44.50
2018-06-02T03:47:13.676Z,45.10
2018-06-02T03:48:13.710Z,49.30
2018-06-02T03:49:13.742Z,45.60
2018-06-02T03:50:13.769Z,50.20
2018-06-02T03:51:13.810Z,48.90
2018-06-02T03:52:13.862Z,52.00
2018-06-02T03:53:13.877Z,48.20
2018-06-02T03:54:13.914Z,46.40
2018-06-02T03:55:13.947Z,46.90
2018-06-02T03:56:13.975Z,48.50
2018-06-02T03:57:14.054Z,46.50
2018-06-02T03:58:14.045Z,47.20
2018-06-02T03:59:14.077Z,49.70
2018-06-02T04:00:14.111Z,52.20
2018-06-02T04:01:14.146Z,50.10
2018-06-02T04:02:14.179Z,50.10
2018-06-02T04:03:14.213Z,51.20
2018-06-02T04:04:14.245Z,48.60
2018-06-02T04:05:14.278Z,48.00
2018-06-02T04:06:14.316Z,50.00
2018-06-02T04:07:14.347Z,49.50
2018-06-02T04:08:14.378Z,49.90
2018-06-02T04:09:14.417Z,48.60
2018-06-02T04:10:14.457Z,49.00
2018-06-02T04:11:14.480Z,48.50
2018-06-02T04:12:14.515Z,49.40
2018-06-02T04:13:14.553Z,50.60
2018-06-02T04:14:14.579Z,51.60
2018-06-02T04:15:14.615Z,52.00
2018-06-02T04:16:14.645Z,51.60
2018-06-02T04:17:14.679Z,51.40
2018-06-02T04:18:14.720Z,52.30
2018-06-02T04:19:14.747Z,54.30
2018-06-02T04:20:14.782Z,53.00
2018-06-02T04:21:14.813Z,55.60
2018-06-02T04:22:14.849Z,53.00
2018-06-02T04:23:14.881Z,53.20
2018-06-02T04:24:14.912Z,54.50
2018-06-02T04:25:14.946Z,54.90
2018-06-02T04:26:14.981Z,54.00
2018-06-02T04:27:15.015Z,53.10
2018-06-02T04:28:15.073Z,51.90
2018-06-02T04:29:15.114Z,55.10
2018-06-02T04:30:15.167Z,54.50
2018-06-02T04:31:15.149Z,54.90
2018-06-02T04:32:15.200Z,57.30
2018-06-02T04:33:15.216Z,56.90
2018-06-02T04:34:15.248Z,56.50
2018-06-02T04:35:15.282Z,56.10
2018-06-02T04:36:15.314Z,56.70
2018-06-02T04:37:15.348Z,55.00
2018-06-02T04:38:15.381Z,55.70
2018-06-02T04:39:15.415Z,55.70
2018-06-02T04:40:15.448Z,57.20
2018-06-02T04:41:15.482Z,57.70
2018-06-02T04:42:15.516Z,55.90
2018-06-02T04:43:15.547Z,54.50
2018-06-02T04:44:15.585Z,55.20
2018-06-02T04:45:15.614Z,55.60
2018-06-02T04:46:15.648Z,54.00
2018-06-02T04:47:15.682Z,56.30
2018-06-02T04:48:15.715Z,54.20
2018-06-02T04:49:15.748Z,56.50
2018-06-02T04:50:15.781Z,55.10
2018-06-02T04:51:15.815Z,54.40
2018-06-02T04:52:15.847Z,54.90
2018-06-02T04:53:15.881Z,56.00
2018-06-02T04:54:15.972Z,54.60
2018-06-02T04:55:15.949Z,55.50
2018-06-02T04:56:16.039Z,53.90
2018-06-02T04:57:16.019Z,56.30
2018-06-02T04:58:16.110Z,55.20
2018-06-02T04:59:16.082Z,53.00
2018-06-02T05:00:16.124Z,52.40
2018-06-02T05:01:16.149Z,55.20
2018-06-02T05:02:16.184Z,55.70
2018-06-02T05:03:16.216Z,57.30
2018-06-02T05:04:16.253Z,57.90
2018-06-02T05:05:16.283Z,54.50
2018-06-02T05:06:16.319Z,54.00
2018-06-02T05:07:16.366Z,53.50
2018-06-02T05:08:16.389Z,56.50
2018-06-02T05:09:16.418Z,54.10
2018-06-02T05:10:16.451Z,54.40
2018-06-02T05:11:16.484Z,54.00
2018-06-02T05:12:16.516Z,54.60
2018-06-02T05:13:16.555Z,50.30
2018-06-02T05:14:16.587Z,53.40
2018-06-02T05:15:16.620Z,53.90
2018-06-02T05:16:16.651Z,58.30
2018-06-02T05:18:10.199Z,53.10
2018-06-02T05:19:10.220Z,50.50
2018-06-02T05:21:04.224Z,49.20
2018-06-02T05:22:03.790Z,49.30
2018-06-02T05:23:57.345Z,45.00
2018-06-02T05:24:57.360Z,43.00
2018-06-02T05:26:50.908Z,42.40
2018-06-02T05:27:50.929Z,42.30
2018-06-02T05:29:44.487Z,42.80
2018-06-02T05:30:44.500Z,43.00
2018-06-02T05:32:38.053Z,43.80
2018-06-02T05:33:38.073Z,45.00
2018-06-02T05:35:31.624Z,41.60
2018-06-02T05:36:31.642Z,40.50
2018-06-02T05:38:25.189Z,41.40
2018-06-02T05:39:25.217Z,43.80
2018-06-02T05:41:18.767Z,37.70
2018-06-02T05:42:18.846Z,37.50
2018-06-02T05:44:12.332Z,37.50
2018-06-02T05:45:12.354Z,35.90
2018-06-02T05:47:06.363Z,34.50
2018-06-02T05:48:05.923Z,34.90
2018-06-02T05:49:59.474Z,34.90
2018-06-02T05:50:59.495Z,34.40
2018-06-02T05:52:53.046Z,34.60
2018-06-02T05:53:53.065Z,33.40
2018-06-02T05:55:46.614Z,31.20
2018-06-02T05:56:46.635Z,30.00
2018-06-02T05:58:40.189Z,29.50
2018-06-02T05:59:40.205Z,30.90
2018-06-02T06:01:33.753Z,28.00
2018-06-02T06:02:33.780Z,28.10
2018-06-02T06:04:27.327Z,27.20
2018-06-02T06:05:27.347Z,26.90
2018-06-02T06:07:20.896Z,25.00
2018-06-02T06:08:20.916Z,25.30
2018-06-02T06:10:14.469Z,26.40
2018-06-02T06:11:14.491Z,22.90
2018-06-02T06:13:08.038Z,27.50
2018-06-02T06:14:08.058Z,26.30
2018-06-02T06:16:01.616Z,22.50
2018-06-02T06:17:01.632Z,24.70
2018-06-02T06:18:55.178Z,26.60
2018-06-02T06:19:55.198Z,22.60
2018-06-02T06:21:48.756Z,21.40
2018-06-02T06:22:48.771Z,19.10
2018-06-02T06:24:42.316Z,19.10
2018-06-02T06:25:42.340Z,19.50
2018-06-02T06:27:35.891Z,16.30
2018-06-02T06:28:35.910Z,17.60
2018-06-02T06:30:29.459Z,16.40
2018-06-02T06:31:29.480Z,16.10
2018-06-02T06:33:23.035Z,15.50
2018-06-02T06:34:23.056Z,16.40
2018-06-02T06:36:16.599Z,14.20
2018-06-02T06:37:16.623Z,14.20
2018-06-02T06:39:10.194Z,13.00
2018-06-02T06:40:10.200Z,13.60
2018-06-02T06:42:03.740Z,13.20
2018-06-02T06:43:03.761Z,12.70
2018-06-02T06:44:57.319Z,12.50
2018-06-02T06:45:57.335Z,12.10
2018-06-02T06:47:50.882Z,11.80
2018-06-02T06:48:50.907Z,12.80
2018-06-02T06:50:44.484Z,11.90
2018-06-02T06:51:44.473Z,12.50
2018-06-02T06:53:38.024Z,11.80
2018-06-02T06:54:38.046Z,11.40
2018-06-02T06:56:31.598Z,11.10
2018-06-02T06:57:31.616Z,11.80
2018-06-02T06:59:25.169Z,12.10
2018-06-02T07:00:25.187Z,11.10
2018-06-02T07:02:18.739Z,11.80
2018-06-02T07:03:18.757Z,11.80
2018-06-02T07:05:12.304Z,11.80
2018-06-02T07:06:12.327Z,10.40
2018-06-02T07:08:05.878Z,10.80
2018-06-02T07:09:05.898Z,10.80
2018-06-02T07:10:59.932Z,11.30
2018-06-02T07:11:59.487Z,12.80
2018-06-02T07:13:53.020Z,11.30
2018-06-02T07:14:53.038Z,13.30
2018-06-02T07:16:46.595Z,11.30
2018-06-02T07:17:46.649Z,11.60
2018-06-02T07:19:40.101Z,48.30
2018-06-02T07:20:40.116Z,63.40
2018-06-02T07:22:33.125Z,66.00
2018-06-02T07:23:33.140Z,65.80
2018-06-02T07:25:26.687Z,71.30
2018-06-02T07:26:26.706Z,66.80
2018-06-02T07:28:19.745Z,42.80
2018-06-02T07:29:19.768Z,47.80
2018-06-02T07:31:13.316Z,51.50
2018-06-02T07:32:13.340Z,45.30
2018-06-02T07:34:06.895Z,46.60
2018-06-02T07:35:06.908Z,41.80
2018-06-02T07:37:00.462Z,40.90
2018-06-02T07:38:00.482Z,40.60
2018-06-02T07:39:54.042Z,39.70
2018-06-02T07:40:54.049Z,40.10
2018-06-02T07:42:47.602Z,34.60
2018-06-02T07:43:47.620Z,35.20
2018-06-02T07:45:41.165Z,33.60
2018-06-02T07:46:41.188Z,35.20
2018-06-02T07:48:34.742Z,33.50
2018-06-02T07:49:34.759Z,31.40
2018-06-02T07:51:28.328Z,28.60
2018-06-02T07:52:28.328Z,30.40
2018-06-02T07:54:21.371Z,29.10
2018-06-02T07:55:21.389Z,26.60
2018-06-02T07:57:14.946Z,24.00
2018-06-02T07:58:14.956Z,27.10
2018-06-02T08:00:08.968Z,26.80
2018-06-02T08:01:08.530Z,24.20
2018-06-02T08:03:02.078Z,23.60
2018-06-02T08:04:02.099Z,25.20
2018-06-02T08:05:55.653Z,22.10
2018-06-02T08:06:55.724Z,24.20
2018-06-02T08:08:49.216Z,22.10
2018-06-02T08:09:49.244Z,21.10
2018-06-02T08:11:42.794Z,23.40
2018-06-02T08:12:42.810Z,21.50
2018-06-02T08:14:36.359Z,22.50
2018-06-02T08:15:36.384Z,24.10
2018-06-02T08:17:29.935Z,19.00
2018-06-02T08:18:29.953Z,19.00
2018-06-02T08:20:23.498Z,17.00
2018-06-02T08:21:23.523Z,19.30
2018-06-02T08:23:17.077Z,19.00
2018-06-02T08:24:17.091Z,16.70
2018-06-02T08:26:10.639Z,19.00
2018-06-02T08:27:10.663Z,16.50
2018-06-02T08:29:04.219Z,19.00
2018-06-02T08:30:04.232Z,17.50
2018-06-02T08:31:57.781Z,16.10
2018-06-02T08:32:57.803Z,17.80
2018-06-02T08:34:51.358Z,15.60
2018-06-02T08:35:51.373Z,14.30
2018-06-02T08:37:44.921Z,16.50
2018-06-02T08:38:44.944Z,14.20
2018-06-02T08:40:38.498Z,13.90
2018-06-02T08:41:38.515Z,13.20
2018-06-02T08:43:32.063Z,13.50
2018-06-02T08:44:32.094Z,15.60
2018-06-02T08:46:25.691Z,15.70
2018-06-02T08:47:25.714Z,12.50
2018-06-02T08:49:19.217Z,13.50
2018-06-02T08:50:19.239Z,12.80
2018-06-02T08:52:12.780Z,12.70
2018-06-02T08:53:12.796Z,13.10
2018-06-02T08:55:06.343Z,13.10
2018-06-02T08:56:06.367Z,11.80
2018-06-02T08:57:59.925Z,12.00
2018-06-02T08:58:59.938Z,12.20
2018-06-02T09:00:53.485Z,11.60
2018-06-02T09:01:53.512Z,11.50
2018-06-02T09:03:47.063Z,11.30
2018-06-02T09:04:47.078Z,11.30
2018-06-02T09:06:40.628Z,10.60
2018-06-02T09:07:40.652Z,12.60
2018-06-02T09:09:34.204Z,10.80
2018-06-02T09:10:34.220Z,10.70
2018-06-02T09:12:27.770Z,11.80
2018-06-02T09:13:27.791Z,10.80
2018-06-02T09:15:21.345Z,10.80
2018-06-02T09:16:21.360Z,11.00
2018-06-02T09:18:14.906Z,10.00
2018-06-02T09:19:14.931Z,10.60
2018-06-02T09:21:08.486Z,9.90
2018-06-02T09:22:08.501Z,10.20
2018-06-02T09:24:02.055Z,10.40
2018-06-02T09:25:02.073Z,11.00
2018-06-02T09:26:55.625Z,10.00
2018-06-02T09:27:55.698Z,9.80
2018-06-02T09:29:49.193Z,9.40
2018-06-02T09:30:49.213Z,9.80
2018-06-02T09:32:42.768Z,9.70
2018-06-02T09:33:42.783Z,9.20
2018-06-02T09:35:36.336Z,9.60
2018-06-02T09:36:36.354Z,8.90
2018-06-02T09:38:29.908Z,9.40
2018-06-02T09:39:29.925Z,8.90
2018-06-02T09:41:23.472Z,8.60
2018-06-02T09:42:23.494Z,9.50
2018-06-02T09:44:17.045Z,8.70
2018-06-02T09:45:17.068Z,9.10
2018-06-02T09:47:10.616Z,8.90
2018-06-02T09:48:10.635Z,9.10
2018-06-02T09:50:04.209Z,8.90
2018-06-02T09:51:04.206Z,8.60
2018-06-02T09:52:57.754Z,8.60
2018-06-02T09:53:57.776Z,8.30
2018-06-02T09:55:51.333Z,8.60
2018-06-02T09:56:51.348Z,8.20
2018-06-02T09:58:44.896Z,7.90
2018-06-02T09:59:44.917Z,8.30
2018-06-02T10:01:38.471Z,7.80
2018-06-02T10:02:38.488Z,7.60
2018-06-02T10:04:31.990Z,7.70
2018-06-02T10:05:31.994Z,8.00
2018-06-02T10:07:25.510Z,7.30
2018-06-02T10:08:25.528Z,7.80
2018-06-02T10:10:19.081Z,7.90
2018-06-02T10:11:19.111Z,7.90
2018-06-02T10:13:12.651Z,7.60
2018-06-02T10:14:12.671Z,7.80
2018-06-02T10:16:06.674Z,7.50
2018-06-02T10:17:06.228Z,7.60
2018-06-02T10:18:59.795Z,7.40
2018-06-02T10:19:59.807Z,7.60
2018-06-02T10:21:53.364Z,7.20
2018-06-02T10:22:53.420Z,7.60
2018-06-02T10:24:46.427Z,7.20
2018-06-02T10:25:46.437Z,7.00
2018-06-02T10:27:39.987Z,7.40
2018-06-02T10:28:40.048Z,7.10
2018-06-02T10:30:33.561Z,6.80
2018-06-02T10:31:33.580Z,7.00
2018-06-02T10:33:27.126Z,7.00
2018-06-02T10:34:27.149Z,6.90
2018-06-02T10:36:20.191Z,7.00
2018-06-02T10:37:20.207Z,6.80
2018-06-02T10:39:13.786Z,7.20
2018-06-02T10:40:13.778Z,6.10
2018-06-02T10:42:07.331Z,6.50
2018-06-02T10:43:07.341Z,6.60
2018-06-02T10:45:00.898Z,6.50
2018-06-02T10:46:00.919Z,6.40
2018-06-02T10:47:54.475Z,6.50
2018-06-02T10:48:54.490Z,6.10
2018-06-02T10:50:48.037Z,6.20
2018-06-02T10:51:48.059Z,6.30
2018-06-02T10:53:41.610Z,6.80
2018-06-02T10:54:41.631Z,6.60
2018-06-02T10:56:35.178Z,6.30
2018-06-02T10:57:35.271Z,6.40
2018-06-02T10:59:28.782Z,6.00
2018-06-02T11:00:28.771Z,6.40
2018-06-02T11:02:22.317Z,6.20
2018-06-02T11:03:22.340Z,6.40
2018-06-02T11:05:16.361Z,6.40
2018-06-02T11:06:15.902Z,6.00
2018-06-02T11:08:21.136Z,6.00
2018-06-02T11:09:21.206Z,6.20
2018-06-02T11:11:14.712Z,6.80
2018-06-02T11:12:14.726Z,6.30
2018-06-02T11:14:08.276Z,6.30
2018-06-02T11:15:08.299Z,5.80
2018-06-02T11:17:01.853Z,6.00
2018-06-02T11:18:01.869Z,5.90
2018-06-02T11:19:55.418Z,5.90
2018-06-02T11:20:55.440Z,5.90
2018-06-02T11:22:49.001Z,6.00
2018-06-02T11:23:49.009Z,6.40
2018-06-02T11:25:42.579Z,6.40
2018-06-02T11:26:42.582Z,6.30
2018-06-02T11:28:36.134Z,6.10
2018-06-02T11:29:36.149Z,6.10
2018-06-02T11:31:29.634Z,6.70
2018-06-02T11:32:29.654Z,5.80
2018-06-02T11:34:23.174Z,6.50
2018-06-02T11:35:23.190Z,6.70
2018-06-02T11:37:16.738Z,6.10
2018-06-02T11:38:16.760Z,6.80
2018-06-02T11:40:10.318Z,6.00
2018-06-02T11:41:10.331Z,6.50
2018-06-02T11:43:03.887Z,6.40
2018-06-02T11:44:03.942Z,6.70
2018-06-02T11:45:57.454Z,6.00
2018-06-02T11:46:57.472Z,6.20
2018-06-02T11:48:50.951Z,6.40
2018-06-02T11:49:50.973Z,6.30
2018-06-02T11:51:44.491Z,6.50
2018-06-02T11:52:44.508Z,6.20
2018-06-02T11:54:38.057Z,6.70
2018-06-02T11:55:38.083Z,6.90
2018-06-02T11:57:31.633Z,6.00
2018-06-02T11:58:31.652Z,6.10
2018-06-02T12:00:25.198Z,6.70
2018-06-02T12:01:25.218Z,6.60
2018-06-02T12:03:18.709Z,7.00
2018-06-02T12:04:18.723Z,7.10
2018-06-02T12:06:11.736Z,7.00
2018-06-02T12:07:11.759Z,6.90
2018-06-02T12:09:05.303Z,7.70
2018-06-02T12:10:05.316Z,7.10
2018-06-02T12:11:58.872Z,7.00
2018-06-02T12:12:58.897Z,6.80
2018-06-02T12:14:52.444Z,6.80
2018-06-02T12:15:52.458Z,7.00
2018-06-02T12:17:46.008Z,6.60
2018-06-02T12:18:46.029Z,6.50
2018-06-02T12:20:39.560Z,6.90
2018-06-02T12:21:39.533Z,6.60
2018-06-02T12:23:33.050Z,6.40
2018-06-02T12:24:33.068Z,6.60
2018-06-02T12:26:26.553Z,6.40
2018-06-02T12:27:26.570Z,6.30
2018-06-02T12:29:20.057Z,6.20
2018-06-02T12:30:20.082Z,6.20
2018-06-02T12:32:13.661Z,5.70
2018-06-02T12:33:13.677Z,5.80
2018-06-02T12:35:07.222Z,6.40
2018-06-02T12:36:07.245Z,6.00
2018-06-02T12:38:00.741Z,5.90
2018-06-02T12:39:00.753Z,6.50
2018-06-02T12:40:54.264Z,6.30
2018-06-02T12:41:54.292Z,6.40
2018-06-02T12:43:47.772Z,5.80
2018-06-02T12:44:47.790Z,5.90
2018-06-02T12:46:41.300Z,5.70
2018-06-02T12:47:41.350Z,5.50
2018-06-02T12:49:34.877Z,5.90
2018-06-02T12:50:34.894Z,6.20
2018-06-02T12:52:28.441Z,5.80
2018-06-02T12:53:28.466Z,5.00
2018-06-02T12:55:22.017Z,5.90
2018-06-02T12:56:22.029Z,5.60
2018-06-02T12:58:15.583Z,5.40
2018-06-02T12:59:15.606Z,5.80
2018-06-02T13:01:09.104Z,5.30
2018-06-02T13:02:09.110Z,5.30
2018-06-02T13:04:02.619Z,5.10
2018-06-02T13:05:02.645Z,5.10
2018-06-02T13:06:55.687Z,5.20
2018-06-02T13:07:55.706Z,4.80
2018-06-02T13:09:48.741Z,5.40
2018-06-02T13:10:48.761Z,5.00
2018-06-02T13:12:42.311Z,4.70
2018-06-02T13:13:42.332Z,4.80
2018-06-02T13:15:35.881Z,4.50
2018-06-02T13:16:35.901Z,5.60
2018-06-02T13:18:29.457Z,4.20
2018-06-02T13:19:29.471Z,4.60
2018-06-02T13:21:22.956Z,4.20
2018-06-02T13:22:22.978Z,4.00
2018-06-02T13:24:16.470Z,4.70
2018-06-02T13:25:16.485Z,4.60
2018-06-02T13:27:10.093Z,3.80
2018-06-02T13:28:10.086Z,3.70
2018-06-02T13:30:03.635Z,3.70
2018-06-02T13:31:03.652Z,3.80
2018-06-02T13:32:57.137Z,3.80
2018-06-02T13:33:57.155Z,3.60
2018-06-02T13:35:50.673Z,3.80
2018-06-02T13:36:50.690Z,4.70
2018-06-02T13:38:44.238Z,3.80
2018-06-02T13:39:44.263Z,3.70
2018-06-02T13:41:37.748Z,4.10
2018-06-02T13:42:37.765Z,3.90
2018-06-02T13:44:31.771Z,3.80
2018-06-02T13:45:31.309Z,3.80
2018-06-02T13:47:25.032Z,3.40
2018-06-02T13:48:25.050Z,4.30
2018-06-02T13:50:18.622Z,3.40
2018-06-02T13:51:18.677Z,3.40
2018-06-02T13:53:12.131Z,3.50
2018-06-02T13:54:12.148Z,4.20
2018-06-02T13:56:05.752Z,3.20
2018-06-02T13:57:05.687Z,3.30
2018-06-02T13:59:03.244Z,4.10
2018-06-02T14:00:03.329Z,4.00
2018-06-02T14:01:56.796Z,3.90
2018-06-02T14:02:56.817Z,3.00
2018-06-02T14:04:50.618Z,3.30
2018-06-02T14:05:50.323Z,3.50
2018-06-02T14:07:43.835Z,3.20
2018-06-02T14:08:43.857Z,3.10
2018-06-02T14:10:37.441Z,3.00
2018-06-02T14:11:37.428Z,2.90
2018-06-02T14:13:31.131Z,3.00
2018-06-02T14:14:30.932Z,3.60
2018-06-02T14:16:24.461Z,3.40
2018-06-02T14:17:24.468Z,3.20
2018-06-02T14:19:18.014Z,3.00
2018-06-02T14:20:18.035Z,3.60
2018-06-02T14:22:11.602Z,2.90
2018-06-02T14:23:11.607Z,3.90
2018-06-02T14:25:05.225Z,3.00
2018-06-02T14:26:05.246Z,2.90
2018-06-02T14:27:58.737Z,4.30
2018-06-02T14:28:58.750Z,2.90
2018-06-02T14:30:52.790Z,3.10
2018-06-02T14:31:52.320Z,3.10
2018-06-02T14:33:45.874Z,4.00
2018-06-02T14:34:45.888Z,3.10
2018-06-02T14:36:39.440Z,4.40
2018-06-02T14:37:39.459Z,3.80
2018-06-02T14:39:33.126Z,3.30
2018-06-02T14:40:33.322Z,3.90
2018-06-02T14:42:26.577Z,3.90
2018-06-02T14:43:26.600Z,5.60
2018-06-02T14:45:20.224Z,3.70
2018-06-02T14:46:20.105Z,4.00
2018-06-02T14:48:13.621Z,4.90
2018-06-02T14:49:13.638Z,4.20
2018-06-02T14:51:07.527Z,4.30
2018-06-02T14:52:07.209Z,5.60
2018-06-02T14:54:00.756Z,4.40
2018-06-02T14:55:00.860Z,4.10
2018-06-02T14:56:54.332Z,4.20
2018-06-02T14:57:54.348Z,3.70
2018-06-02T14:59:52.094Z,4.60
2018-06-02T15:00:52.118Z,3.90
2018-06-02T15:02:45.836Z,3.80
2018-06-02T15:03:45.715Z,4.30
2018-06-02T15:05:39.237Z,3.90
2018-06-02T15:06:39.259Z,4.60
2018-06-02T15:07:39.294Z,3.80
2018-06-02T15:08:39.330Z,4.10
2018-06-02T15:09:39.364Z,4.10
2018-06-02T15:10:39.399Z,4.20
2018-06-02T15:11:39.434Z,4.00
2018-06-02T15:12:39.592Z,4.40
2018-06-02T15:13:39.503Z,4.00
2018-06-02T15:14:39.558Z,3.70
2018-06-02T15:15:39.573Z,4.00
2018-06-02T15:16:39.608Z,3.90
2018-06-02T15:17:39.644Z,3.50
2018-06-02T15:18:39.686Z,3.70
2018-06-02T15:19:39.717Z,4.30
2018-06-02T15:20:39.746Z,4.80
2018-06-02T15:21:39.867Z,3.70
2018-06-02T15:22:39.817Z,4.10
2018-06-02T15:23:39.852Z,4.00
2018-06-02T15:24:39.887Z,4.60
2018-06-02T15:25:39.920Z,4.30
2018-06-02T15:26:40.206Z,5.50
2018-06-02T15:27:39.989Z,4.60
2018-06-02T15:28:40.026Z,4.20
2018-06-02T15:29:40.059Z,5.10
2018-06-02T15:30:40.095Z,4.30
2018-06-02T15:31:40.139Z,5.40
2018-06-02T15:32:40.163Z,6.50
2018-06-02T15:33:40.197Z,4.70
2018-06-02T15:34:40.234Z,5.10
2018-06-02T15:35:40.270Z,5.60
2018-06-02T15:36:40.332Z,4.50
2018-06-02T15:37:40.337Z,4.90
2018-06-02T15:38:40.373Z,5.50
2018-06-02T15:39:40.408Z,4.70
2018-06-02T15:40:40.444Z,4.20
2018-06-02T15:41:40.478Z,4.90
2018-06-02T15:42:40.513Z,4.90
2018-06-02T15:43:40.551Z,37.50
2018-06-02T15:44:40.585Z,32.90
2018-06-02T15:45:40.617Z,27.20
2018-06-02T15:46:40.651Z,20.10
2018-06-02T15:47:40.693Z,29.00
2018-06-02T15:48:40.744Z,37.40
2018-06-02T15:49:40.759Z,41.40
2018-06-02T15:50:40.791Z,29.40
2018-06-02T15:51:40.826Z,26.20
2018-06-02T15:52:40.860Z,28.70
2018-06-02T15:53:40.894Z,27.20
2018-06-02T15:54:40.931Z,32.40
2018-06-02T15:55:41.025Z,24.70
2018-06-02T15:56:40.999Z,23.30
2018-06-02T15:57:41.038Z,23.30
2018-06-02T15:58:41.069Z,22.70
2018-06-02T15:59:41.143Z,24.40
2018-06-02T16:00:41.140Z,21.10
2018-06-02T16:01:41.182Z,23.00
2018-06-02T16:02:41.225Z,24.80
2018-06-02T16:03:41.242Z,20.50